Time;durP1;ratioP1;P1;durP2;ratioP2;P2;SDS_P1;SDS_P2;PMS_P1;PMS_P2;Temp;Humidity;BMP_temperature;BMP_pressure;BME280_temperature;BME280_humidity;BME280_pressure;Samples;Min_cycle;Max_cycle;Signal;HPM_P1;HPM_P2
2023/11/11 00:01:55;;;;;;;20.95;15.35;;;;;;;9.27;76.87;93671.50;4209538;28;20044;-69
2023/11/11 00:03:58;;;;;;;19.80;15.80;;;;;;;9.01;76.90;93683.13;4207386;28;20152;-68
2023/11/11 00:06:00;;;;;;;20.40;17.02;;;;;;;9.04;77.69;93671.53;4197051;28;20396;-71
2023/11/11 00:08:02;;;;;;;19.65;16.52;;;;;;;9.12;77.71;93683.69;4208356;28;20079;-66
2023/11/11 00:10:05;;;;;;;18.73;14.30;;;;;;;9.20;76.95;93717.59;4207825;28;20139;-70
2023/11/11 00:12:10;;;;;;;15.93;13.57;;;;;;;8.93;77.71;93667.53;4210770;28;20432;-68
2023/11/11 00:14:13;;;;;;;15.00;12.05;;;;;;;8.73;79.64;93638.44;4226766;28;20048;-68
2023/11/11 00:16:20;;;;;;;13.35;11.38;;;;;;;8.89;78.97;93665.44;4210393;28;20044;-69
2023/11/11 00:18:22;;;;;;;14.35;11.60;;;;;;;9.10;78.83;93670.81;4207896;28;20060;-69
2023/11/11 00:20:24;;;;;;;13.07;10.70;;;;;;;9.23;77.52;93665.81;4206730;28;20044;-68
2023/11/11 00:22:28;;;;;;;14.43;10.65;;;;;;;9.29;76.91;93653.84;4211676;28;20130;-69
2023/11/11 00:24:30;;;;;;;14.75;11.05;;;;;;;9.19;77.38;93650.66;4210579;28;20062;-68
2023/11/11 00:26:33;;;;;;;13.95;10.63;;;;;;;9.27;77.74;93645.38;4191483;28;20094;-69
2023/11/11 00:28:40;;;;;;;12.68;10.73;;;;;;;9.45;77.04;93639.00;4208851;28;20048;-70
2023/11/11 00:30:45;;;;;;;16.92;10.20;;;;;;;9.58;76.78;93623.53;4209182;28;20048;-69
2023/11/11 00:32:50;;;;;;;11.13;7.20;;;;;;;9.51;76.30;93599.91;4206077;28;20055;-70
2023/11/11 00:34:53;;;;;;;8.23;7.15;;;;;;;9.69;76.10;93599.53;4223971;28;20048;-69
2023/11/11 00:36:56;;;;;;;9.90;7.60;;;;;;;9.80;75.70;93614.75;4204491;28;20037;-70
2023/11/11 00:38:58;;;;;;;8.07;6.40;;;;;;;9.95;75.17;93604.28;4209988;28;20052;-69
2023/11/11 00:41:03;;;;;;;7.72;5.57;;;;;;;10.12;74.10;93604.91;4207294;28;20086;-70
2023/11/11 00:43:05;;;;;;;8.23;6.85;;;;;;;9.93;74.45;93635.06;4220581;28;20047;-71
2023/11/11 00:45:07;;;;;;;15.27;8.27;;;;;;;9.87;74.56;93654.09;4205759;28;20048;-69
2023/11/11 00:47:09;;;;;;;9.60;8.43;;;;;;;9.41;76.01;93633.31;4208622;28;20158;-67
2023/11/11 00:49:11;;;;;;;13.40;9.07;;;;;;;8.99;77.40;93627.63;4208366;28;20482;-69
2023/11/11 00:51:13;;;;;;;12.73;10.48;;;;;;;8.79;78.54;93642.16;4211255;28;20050;-68
2023/11/11 00:53:15;;;;;;;12.65;9.95;;;;;;;8.67;78.83;93659.19;4197752;28;20044;-67
2023/11/11 00:55:17;;;;;;;11.30;9.55;;;;;;;8.40;79.58;93622.13;4204474;28;20550;-69
2023/11/11 00:57:22;;;;;;;13.88;10.57;;;;;;;8.55;79.54;93619.63;4209144;28;20469;-70
2023/11/11 00:59:24;;;;;;;12.82;10.45;;;;;;;8.71;79.34;93623.91;4200129;28;20101;-70
2023/11/11 01:01:26;;;;;;;12.23;9.82;;;;;;;8.91;78.66;93619.88;4204696;28;20048;-68
2023/11/11 01:03:28;;;;;;;9.73;8.73;;;;;;;9.10;78.29;93591.59;4205962;28;20055;-68
2023/11/11 01:05:30;;;;;;;10.40;9.30;;;;;;;9.25;77.68;93610.78;4196842;28;20091;-69
2023/11/11 01:07:31;;;;;;;9.43;8.43;;;;;;;9.40;76.33;93624.66;4211189;28;20075;-69
2023/11/11 01:09:33;;;;;;;10.48;8.40;;;;;;;9.34;76.46;93629.81;4211452;28;20083;-72
2023/11/11 01:11:35;;;;;;;10.70;8.15;;;;;;;9.39;76.73;93633.50;4210230;28;20105;-71
2023/11/11 01:13:37;;;;;;;13.77;8.80;;;;;;;9.51;76.39;93622.63;4212253;28;20056;-69
2023/11/11 01:15:40;;;;;;;18.92;16.92;;;;;;;9.54;76.05;93638.75;4209206;28;20117;-69
2023/11/11 01:17:42;;;;;;;24.75;20.27;;;;;;;9.48;75.79;93631.59;4206485;28;20098;-69
2023/11/11 01:19:45;;;;;;;24.52;21.83;;;;;;;9.33;75.94;93607.25;4204525;28;20349;-67
2023/11/11 01:21:47;;;;;;;22.03;18.43;;;;;;;9.38;76.56;93603.13;4208145;28;20411;-70
2023/11/11 01:23:49;;;;;;;22.92;20.73;;;;;;;9.41;76.00;93607.19;4203224;28;20313;-69
2023/11/11 01:25:51;;;;;;;13.30;10.82;;;;;;;9.41;75.67;93599.34;4213823;28;20059;-68
2023/11/11 01:27:53;;;;;;;16.42;14.82;;;;;;;9.51;75.65;93609.53;4210255;28;20170;-69
2023/11/11 01:29:55;;;;;;;19.42;14.93;;;;;;;9.53;75.15;93602.31;4211496;28;20479;-68
2023/11/11 01:31:57;;;;;;;16.52;14.85;;;;;;;9.63;75.46;93637.66;4210304;28;20478;-66
2023/11/11 01:33:59;;;;;;;14.35;12.80;;;;;;;9.70;75.05;93609.00;4208753;28;20044;-68
2023/11/11 01:36:04;;;;;;;13.68;10.95;;;;;;;9.68;75.30;93590.06;4209913;28;20059;-68
2023/11/11 01:38:06;;;;;;;9.85;8.65;;;;;;;9.55;75.28;93602.94;4209715;28;20048;-70
2023/11/11 01:40:09;;;;;;;11.85;8.77;;;;;;;9.66;75.50;93638.28;4212845;28;20135;-68
2023/11/11 01:42:12;;;;;;;11.00;9.68;;;;;;;9.70;74.46;93614.25;4213163;28;20054;-67
2023/11/11 01:44:14;;;;;;;10.35;9.13;;;;;;;9.45;75.92;93564.00;4209993;28;20414;-68
2023/11/11 01:46:18;;;;;;;;;;;;;;;9.58;75.54;93587.72;4213800;28;20040;-70
2023/11/11 01:48:20;;;;;;;14.23;12.80;;;;;;;9.70;75.11;93603.78;4207942;28;20370;-69
2023/11/11 01:50:22;;;;;;;19.67;17.75;;;;;;;9.72;74.73;93580.03;4199020;28;20698;-71
2023/11/11 01:52:26;;;;;;;21.92;19.83;;;;;;;9.77;74.33;93593.41;4210644;28;20192;-68
2023/11/11 01:54:29;;;;;;;21.70;19.40;;;;;;;9.82;74.35;93586.63;4202452;28;20048;-69
2023/11/11 01:56:31;;;;;;;27.00;24.02;;;;;;;10.00;74.14;93603.75;4203229;28;20084;-69
2023/11/11 01:58:38;;;;;;;23.98;21.67;;;;;;;10.18;73.54;93592.91;4213261;28;20044;-69
2023/11/11 02:00:41;;;;;;;20.25;18.23;;;;;;;10.28;72.25;93566.44;4213977;28;20125;-69
2023/11/11 02:02:43;;;;;;;29.90;26.88;;;;;;;10.39;72.51;93585.13;4211081;28;20079;-72
2023/11/11 02:04:45;;;;;;;14.07;12.65;;;;;;;10.36;71.61;93563.72;4200420;28;20087;-69
2023/11/11 02:06:49;;;;;;;25.83;23.33;;;;;;;10.29;72.34;93571.50;4197937;28;20049;-68
2023/11/11 02:08:51;;;;;;;24.48;22.08;;;;;;;10.37;72.55;93602.81;4205957;28;20530;-71
2023/11/11 02:10:54;;;;;;;18.88;17.08;;;;;;;10.43;71.66;93607.31;4212223;28;20048;-68
2023/11/11 02:12:57;;;;;;;20.73;18.73;;;;;;;10.54;71.86;93586.88;4198796;28;20047;-69
2023/11/11 02:14:59;;;;;;;20.75;18.63;;;;;;;10.63;71.62;93583.97;4206751;28;20047;-68
2023/11/11 02:17:02;;;;;;;14.02;12.57;;;;;;;10.65;71.01;93562.81;4203800;28;20091;-69
2023/11/11 02:19:05;;;;;;;16.00;13.18;;;;;;;10.47;71.66;93542.28;4212631;28;20043;-67
2023/11/11 02:21:07;;;;;;;14.23;11.88;;;;;;;10.43;71.64;93565.44;4208770;28;20051;-68
2023/11/11 02:23:09;;;;;;;13.65;11.65;;;;;;;10.52;72.10;93575.75;4206052;28;20113;-68
2023/11/11 02:25:11;;;;;;;13.02;11.73;;;;;;;10.57;71.14;93547.22;4211899;28;20056;-68
2023/11/11 02:27:13;;;;;;;17.85;16.15;;;;;;;10.51;70.94;93547.97;4213496;28;20406;-66
2023/11/11 02:29:15;;;;;;;18.15;16.25;;;;;;;10.63;71.07;93552.53;4201496;28;20044;-70
2023/11/11 02:31:17;;;;;;;17.85;16.05;;;;;;;10.77;70.64;93553.44;4199236;28;20127;-72
2023/11/11 02:33:19;;;;;;;16.55;14.63;;;;;;;10.80;70.29;93541.81;4200447;28;20110;-69
2023/11/11 02:35:21;;;;;;;14.82;12.15;;;;;;;10.76;70.07;93556.28;4210533;28;20453;-69
2023/11/11 02:37:23;;;;;;;15.25;12.63;;;;;;;10.82;70.36;93568.63;4209750;28;20040;-71
2023/11/11 02:39:26;;;;;;;12.00;10.77;;;;;;;10.89;70.24;93566.88;4211829;28;20620;-69
2023/11/11 02:41:28;;;;;;;14.27;12.77;;;;;;;10.76;70.24;93528.25;4208758;28;20079;-70
2023/11/11 02:43:30;;;;;;;12.75;11.43;;;;;;;10.79;70.43;93524.44;4213301;28;20410;-70
2023/11/11 02:45:32;;;;;;;14.35;12.10;;;;;;;10.75;70.67;93544.16;4212980;28;20368;-69
2023/11/11 02:47:34;;;;;;;16.10;12.50;;;;;;;10.49;71.18;93503.63;4208535;28;20131;-69
2023/11/11 02:49:36;;;;;;;11.20;9.45;;;;;;;10.60;70.30;93497.91;4201613;28;20047;-68
2023/11/11 02:51:39;;;;;;;5.13;4.03;;;;;;;10.96;68.53;93520.56;4228190;28;20044;-69
2023/11/11 02:53:41;;;;;;;6.30;3.95;;;;;;;11.39;67.14;93536.19;4207855;28;20044;-69
2023/11/11 02:55:42;;;;;;;6.13;4.70;;;;;;;11.54;67.22;93553.63;4206558;28;20048;-70
2023/11/11 02:57:45;;;;;;;7.25;4.20;;;;;;;11.63;66.78;93555.88;4209382;28;20133;-69
2023/11/11 02:59:47;;;;;;;5.38;4.13;;;;;;;11.73;66.76;93573.09;4209700;28;20043;-71
2023/11/11 03:01:51;;;;;;;3.70;3.30;;;;;;;11.76;66.18;93570.09;4207246;28;20040;-69
2023/11/11 03:03:52;;;;;;;5.88;4.45;;;;;;;11.74;66.33;93558.97;4206993;28;20075;-69
2023/11/11 03:05:54;;;;;;;7.43;5.35;;;;;;;11.74;66.08;93564.22;4225223;28;20102;-70
2023/11/11 03:07:56;;;;;;;7.20;4.60;;;;;;;11.53;67.16;93542.31;4212642;28;20495;-69
2023/11/11 03:10:04;;;;;;;6.22;4.55;;;;;;;11.39;68.00;93530.94;4202250;28;20044;-70
2023/11/11 03:12:09;;;;;;;5.65;4.28;;;;;;;11.39;68.45;93541.41;4211460;28;20075;-70
2023/11/11 03:14:12;;;;;;;5.30;3.88;;;;;;;11.37;68.12;93550.47;4209874;28;20044;-68
2023/11/11 03:16:15;;;;;;;7.18;5.00;;;;;;;11.24;68.45;93552.00;4208002;28;20052;-69
2023/11/11 03:18:17;;;;;;;6.15;4.47;;;;;;;11.07;69.11;93569.81;4209545;28;20040;-67
2023/11/11 03:20:20;;;;;;;5.53;4.05;;;;;;;11.07;69.22;93569.00;4209261;28;20522;-68
2023/11/11 03:22:22;;;;;;;;;;;;;;;10.88;70.27;93569.66;4211352;28;20486;-66
2023/11/11 03:24:24;;;;;;;7.32;4.75;;;;;;;10.76;71.23;93572.00;4199754;28;19986;-69
2023/11/11 03:26:27;;;;;;;5.88;4.80;;;;;;;10.80;71.18;93554.91;4212209;28;20044;-67
2023/11/11 03:28:29;;;;;;;6.43;4.40;;;;;;;10.62;71.58;93550.09;4212918;28;20048;-67
2023/11/11 03:30:31;;;;;;;9.80;4.88;;;;;;;10.76;71.83;93545.78;4211006;28;20170;-69
2023/11/11 03:32:33;;;;;;;5.63;4.70;;;;;;;10.88;71.56;93552.13;4211580;28;20105;-69
2023/11/11 03:34:36;;;;;;;8.07;4.80;;;;;;;10.86;71.61;93549.72;4206945;28;20442;-70
2023/11/11 03:36:38;;;;;;;9.20;4.83;;;;;;;10.56;71.92;93508.94;4207263;28;20494;-69
2023/11/11 03:38:41;;;;;;;5.28;4.40;;;;;;;10.63;72.18;93526.34;4202732;28;20375;-70
2023/11/11 03:40:43;;;;;;;5.85;5.30;;;;;;;10.77;71.79;93526.44;4202123;28;20048;-69
2023/11/11 03:42:45;;;;;;;9.27;5.63;;;;;;;10.89;71.59;93526.75;4205495;28;20060;-71
2023/11/11 03:44:47;;;;;;;9.48;8.32;;;;;;;10.61;71.59;93519.66;4210003;28;20048;-69
2023/11/11 03:46:49;;;;;;;8.93;8.02;;;;;;;10.28;73.35;93516.69;4211256;28;20074;-69
2023/11/11 03:48:51;;;;;;;9.05;6.78;;;;;;;10.34;72.90;93534.31;4208509;28;20452;-70
2023/11/11 03:50:52;;;;;;;8.20;7.40;;;;;;;10.45;73.01;93528.56;4205612;28;20051;-70
2023/11/11 03:52:54;;;;;;;11.80;10.60;;;;;;;10.60;72.97;93521.50;4208446;28;20048;-68
2023/11/11 03:54:56;;;;;;;14.55;12.57;;;;;;;10.68;73.09;93538.06;4209797;28;20479;-66
2023/11/11 03:56:58;;;;;;;16.52;14.15;;;;;;;10.57;72.38;93515.81;4225182;28;20047;-70
2023/11/11 03:59:00;;;;;;;18.80;16.58;;;;;;;10.46;72.75;93514.50;4212100;28;20056;-69
2023/11/11 04:01:02;;;;;;;19.08;16.20;;;;;;;10.55;73.08;93523.03;4209787;28;20121;-69
2023/11/11 04:03:05;;;;;;;18.48;16.67;;;;;;;10.67;72.57;93550.34;4202636;28;20044;-67
2023/11/11 04:05:11;;;;;;;16.20;14.32;;;;;;;10.77;72.44;93560.50;4217270;28;20051;-69
2023/11/11 04:07:13;;;;;;;15.20;13.40;;;;;;;10.58;71.96;93552.28;4199234;28;20487;-71
2023/11/11 04:09:15;;;;;;;26.63;24.05;;;;;;;10.28;72.66;93548.09;4211830;28;20132;-70
2023/11/11 04:11:17;;;;;;;19.20;17.30;;;;;;;10.12;74.10;93534.25;4224815;28;20145;-70
2023/11/11 04:13:19;;;;;;;14.95;13.15;;;;;;;9.72;74.39;93512.06;4210761;28;20060;-70
2023/11/11 04:15:21;;;;;;;15.05;13.02;;;;;;;9.46;76.01;93515.16;4204032;28;20111;-69
2023/11/11 04:17:23;;;;;;;15.25;12.48;;;;;;;9.63;76.49;93519.19;4210796;28;20059;-66
2023/11/11 04:19:25;;;;;;;15.43;11.45;;;;;;;9.71;75.53;93506.00;4204527;28;20087;-71
2023/11/11 04:21:27;;;;;;;12.57;9.32;;;;;;;9.60;75.59;93506.50;4201486;28;20056;-68
2023/11/11 04:23:30;;;;;;;10.23;7.95;;;;;;;9.71;75.56;93502.59;4213595;28;20546;-69
2023/11/11 04:25:32;;;;;;;9.82;8.13;;;;;;;9.67;75.31;93481.22;4198363;28;20048;-69
2023/11/11 04:27:35;;;;;;;9.82;7.88;;;;;;;9.84;75.40;93471.34;4190972;28;20130;-69
2023/11/11 04:29:39;;;;;;;9.38;7.30;;;;;;;9.73;75.14;93477.06;4206659;28;20048;-70
2023/11/11 04:31:40;;;;;;;9.20;7.72;;;;;;;9.86;75.09;93481.66;4206906;28;20482;-69
2023/11/11 04:33:44;;;;;;;8.82;7.80;;;;;;;10.00;74.43;93496.47;4210286;28;20046;-69
2023/11/11 04:35:46;;;;;;;12.80;8.15;;;;;;;10.16;74.20;93504.09;4208542;28;20491;-70
2023/11/11 04:37:49;;;;;;;10.23;8.52;;;;;;;10.27;73.79;93488.91;4179450;28;20044;-71
2023/11/11 04:39:56;;;;;;;9.93;8.63;;;;;;;10.04;73.88;93489.88;4210044;28;20051;-69
2023/11/11 04:41:59;;;;;;;12.18;10.93;;;;;;;10.11;74.19;93497.78;4193786;28;20094;-69
2023/11/11 04:44:01;;;;;;;12.18;9.55;;;;;;;10.15;73.98;93499.88;4211417;28;20055;-68
2023/11/11 04:46:03;;;;;;;13.15;9.55;;;;;;;10.18;73.24;93509.97;4210407;28;20051;-69
2023/11/11 04:48:05;;;;;;;11.75;10.55;;;;;;;10.25;72.78;93495.13;4208903;28;20051;-69
2023/11/11 04:50:08;;;;;;;14.13;11.00;;;;;;;10.28;72.85;93496.56;4206298;28;20040;-69
2023/11/11 04:52:12;;;;;;;13.23;11.38;;;;;;;10.29;72.62;93484.31;4184964;28;20136;-68
2023/11/11 04:54:15;;;;;;;15.05;12.35;;;;;;;10.17;73.12;93508.31;4186247;28;20057;-69
2023/11/11 04:56:19;;;;;;;13.02;11.65;;;;;;;10.23;72.98;93512.81;4196599;28;20074;-70
2023/11/11 04:58:23;;;;;;;12.68;10.70;;;;;;;10.33;73.00;93523.03;4213453;28;20489;-70
2023/11/11 05:00:25;;;;;;;12.30;11.00;;;;;;;10.11;73.33;93497.78;4211757;28;20134;-71
2023/11/11 05:02:27;;;;;;;14.43;12.93;;;;;;;10.08;74.03;93509.44;4194161;28;20053;-70
2023/11/11 05:04:29;;;;;;;16.45;12.95;;;;;;;10.15;74.00;93517.38;4212163;28;20044;-72
2023/11/11 05:06:31;;;;;;;12.07;10.40;;;;;;;10.24;73.83;93542.44;4196336;28;20198;-70
2023/11/11 05:08:35;;;;;;;15.70;11.63;;;;;;;10.25;74.65;93518.69;4196149;28;20052;-70
2023/11/11 05:10:37;;;;;;;12.73;10.30;;;;;;;10.19;74.81;93498.47;4213023;28;20134;-71
2023/11/11 05:12:39;;;;;;;10.27;8.57;;;;;;;10.02;74.87;93487.47;4188543;28;20079;-71
2023/11/11 05:14:41;;;;;;;11.05;9.73;;;;;;;9.80;76.39;93454.41;4204159;28;20071;-71
2023/11/11 05:16:50;;;;;;;12.45;9.73;;;;;;;9.51;78.71;93442.22;4213147;28;20083;-71
2023/11/11 05:18:52;;;;;;;12.73;8.77;;;;;;;9.40;79.21;93438.28;4214033;28;20059;-70
2023/11/11 05:20:55;;;;;;;10.68;8.75;;;;;;;9.29;79.80;93438.72;4174383;28;20052;-67
2023/11/11 05:22:57;;;;;;;13.95;9.05;;;;;;;9.24;79.91;93460.19;4212523;28;20143;-69
2023/11/11 05:24:59;;;;;;;11.65;9.02;;;;;;;9.42;79.72;93465.03;4209803;28;20060;-70
2023/11/11 05:27:01;;;;;;;11.90;9.40;;;;;;;9.46;79.66;93444.56;4214782;28;20126;-67
2023/11/11 05:29:03;;;;;;;12.50;10.40;;;;;;;9.51;79.43;93442.22;4214659;28;20324;-69
2023/11/11 05:31:06;;;;;;;13.20;10.23;;;;;;;9.65;79.77;93454.44;4212577;28;20054;-71
2023/11/11 05:33:09;;;;;;;12.20;9.65;;;;;;;9.77;79.09;93449.56;4193653;28;20052;-73
2023/11/11 05:35:11;;;;;;;11.88;9.95;;;;;;;9.62;79.09;93439.94;4214347;28;20086;-71
2023/11/11 05:37:15;;;;;;;14.32;10.43;;;;;;;9.23;80.80;93424.59;4205403;28;20052;-71
2023/11/11 05:39:17;;;;;;;22.50;20.10;;;;;;;9.29;80.79;93449.19;4210206;28;20498;-72
2023/11/11 05:41:19;;;;;;;17.83;15.98;;;;;;;9.40;80.86;93464.41;4195826;28;20488;-71
2023/11/11 05:43:23;;;;;;;21.30;18.42;;;;;;;9.59;80.54;93456.00;4214372;28;20055;-72
2023/11/11 05:45:25;;;;;;;;;;;;;;;9.77;80.00;93462.63;4214129;28;20074;-69
2023/11/11 05:47:28;;;;;;;23.02;20.67;;;;;;;9.84;79.14;93479.22;4208785;28;19963;-71
2023/11/11 05:49:30;;;;;;;21.38;18.95;;;;;;;9.85;79.33;93478.19;4211184;28;20054;-69
2023/11/11 05:51:32;;;;;;;20.45;18.25;;;;;;;9.94;79.32;93478.94;4210260;28;20072;-70
2023/11/11 05:53:35;;;;;;;17.98;16.02;;;;;;;10.02;79.05;93457.84;4210644;28;20044;-70
2023/11/11 05:55:37;;;;;;;17.38;15.05;;;;;;;10.07;78.46;93468.59;4210856;28;20131;-69
2023/11/11 05:57:38;;;;;;;18.38;15.02;;;;;;;10.14;78.06;93469.47;4206967;28;20404;-68
2023/11/11 05:59:41;;;;;;;15.63;13.95;;;;;;;10.10;78.19;93442.03;4208696;28;20552;-69
2023/11/11 06:01:46;;;;;;;21.73;13.48;;;;;;;10.13;78.82;93462.63;4210111;28;20052;-69
2023/11/11 06:03:49;;;;;;;14.25;12.32;;;;;;;10.18;78.19;93464.66;4195952;28;20573;-72
2023/11/11 06:05:51;;;;;;;13.48;12.13;;;;;;;10.20;77.62;93476.56;4201138;28;20049;-72
2023/11/11 06:07:54;;;;;;;14.67;11.73;;;;;;;9.90;78.50;93486.31;4212759;28;20052;-72
2023/11/11 06:09:57;;;;;;;19.45;13.40;;;;;;;9.97;78.72;93489.00;4195592;28;20321;-72
2023/11/11 06:11:59;;;;;;;15.30;13.07;;;;;;;9.80;78.82;93493.66;4193603;28;20067;-71
2023/11/11 06:14:02;;;;;;;19.15;17.15;;;;;;;9.77;79.13;93481.75;4175648;28;20047;-70
2023/11/11 06:16:04;;;;;;;20.58;18.35;;;;;;;9.77;79.97;93470.47;4211448;28;20100;-71
2023/11/11 06:18:06;;;;;;;26.50;23.95;;;;;;;9.84;80.09;93469.53;4208925;28;20082;-68
2023/11/11 06:20:10;;;;;;;24.90;22.40;;;;;;;9.67;80.47;93446.44;4209603;28;20048;-70
2023/11/11 06:22:13;;;;;;;23.33;18.52;;;;;;;9.61;80.99;93442.72;4198166;28;20499;-72
2023/11/11 06:24:15;;;;;;;23.73;21.38;;;;;;;9.70;80.86;93433.81;4194508;28;20084;-72
2023/11/11 06:26:17;;;;;;;42.42;38.38;;;;;;;9.83;80.88;93440.97;4197435;28;20064;-71
2023/11/11 06:28:21;;;;;;;40.47;36.58;;;;;;;9.98;81.01;93443.53;4212482;28;20056;-70
2023/11/11 06:30:23;;;;;;;35.35;31.63;;;;;;;10.11;80.51;93451.53;4211624;28;20483;-71
2023/11/11 06:32:26;;;;;;;34.53;31.23;;;;;;;10.14;79.43;93445.91;4212677;28;20048;-71
2023/11/11 06:34:28;;;;;;;29.75;26.55;;;;;;;10.19;79.77;93446.16;4194407;28;20514;-71
2023/11/11 06:36:30;;;;;;;30.10;27.25;;;;;;;10.28;79.07;93449.44;4192210;28;20076;-71
2023/11/11 06:38:33;;;;;;;32.53;29.13;;;;;;;10.37;79.05;93458.84;4199271;28;20051;-71
2023/11/11 06:40:35;;;;;;;31.63;28.35;;;;;;;10.50;78.73;93468.63;4198981;28;20174;-72
2023/11/11 06:42:38;;;;;;;24.50;19.00;;;;;;;10.44;77.59;93461.50;4192935;28;20125;-70
2023/11/11 06:44:39;;;;;;;26.25;23.45;;;;;;;10.38;77.74;93470.13;4194513;28;20105;-72
2023/11/11 06:46:42;;;;;;;27.65;24.70;;;;;;;10.44;77.96;93471.97;4193749;28;20458;-71
2023/11/11 06:48:45;;;;;;;22.48;19.15;;;;;;;10.43;78.25;93465.13;4204104;28;20072;-70
2023/11/11 06:50:47;;;;;;;21.63;19.27;;;;;;;10.22;78.27;93451.03;4180664;28;20053;-71
2023/11/11 06:52:50;;;;;;;20.85;16.83;;;;;;;10.08;79.08;93430.16;4205912;28;20056;-70
2023/11/11 06:54:52;;;;;;;21.75;19.48;;;;;;;10.16;79.36;93420.38;4212625;28;20052;-69
2023/11/11 06:56:53;;;;;;;26.58;23.85;;;;;;;10.27;79.69;93402.53;4210932;28;20140;-69
2023/11/11 06:58:55;;;;;;;23.65;21.25;;;;;;;10.38;79.98;93396.81;4194058;28;20608;-72
2023/11/11 07:01:00;;;;;;;22.17;20.00;;;;;;;10.45;79.32;93392.44;4210171;28;20044;-70
2023/11/11 07:03:02;;;;;;;19.30;17.15;;;;;;;10.54;79.21;93433.19;4189982;28;20102;-73
2023/11/11 07:05:10;;;;;;;18.00;15.73;;;;;;;10.63;79.00;93431.25;4205514;28;20465;-72
2023/11/11 07:07:12;;;;;;;15.25;12.85;;;;;;;10.68;78.71;93457.66;4188087;28;20084;-72
2023/11/11 07:09:14;;;;;;;16.80;13.48;;;;;;;10.71;77.88;93446.84;4205585;28;20187;-73
2023/11/11 07:11:17;;;;;;;16.27;13.35;;;;;;;10.58;78.44;93433.63;4206661;28;20395;-72
2023/11/11 07:13:20;;;;;;;14.10;12.25;;;;;;;10.38;78.92;93412.53;4194308;28;20057;-71
2023/11/11 07:15:22;;;;;;;15.48;13.80;;;;;;;10.16;80.40;93403.84;4206997;28;20066;-70
2023/11/11 07:17:24;;;;;;;17.70;14.93;;;;;;;10.20;80.08;93416.38;4191183;28;20056;-70
2023/11/11 07:19:27;;;;;;;17.25;14.15;;;;;;;10.30;79.89;93410.84;4194586;28;20110;-68
2023/11/11 07:21:29;;;;;;;17.60;13.30;;;;;;;10.13;79.84;93409.44;4208685;28;20048;-72
2023/11/11 07:23:31;;;;;;;13.77;12.25;;;;;;;10.02;79.92;93427.28;4201037;28;20051;-72
2023/11/11 07:25:35;;;;;;;16.33;13.88;;;;;;;10.12;80.33;93434.81;4209544;28;20264;-71
2023/11/11 07:27:37;;;;;;;18.23;14.27;;;;;;;9.78;81.41;93407.50;4209112;28;20045;-71
2023/11/11 07:29:39;;;;;;;17.02;14.02;;;;;;;9.99;81.61;93422.41;4208485;28;20127;-72
2023/11/11 07:31:41;;;;;;;17.65;14.35;;;;;;;10.18;80.94;93413.13;4207488;28;20052;-72
2023/11/11 07:33:43;;;;;;;17.58;13.93;;;;;;;10.24;80.04;93432.53;4200941;28;20143;-72
2023/11/11 07:35:46;;;;;;;16.80;13.20;;;;;;;10.33;79.83;93420.16;4201365;28;20057;-73
2023/11/11 07:37:49;;;;;;;16.58;13.15;;;;;;;10.37;79.31;93416.16;4208549;28;20048;-73
2023/11/11 07:39:56;;;;;;;16.48;13.68;;;;;;;10.35;79.33;93405.84;4210660;28;20123;-72
2023/11/11 07:41:58;;;;;;;22.50;14.82;;;;;;;10.35;79.63;93402.44;4194730;28;20388;-71
2023/11/11 07:44:06;;;;;;;17.52;14.27;;;;;;;10.20;79.96;93382.34;4207979;28;20074;-72
2023/11/11 07:46:09;;;;;;;19.15;14.35;;;;;;;10.28;79.46;93384.00;4207939;28;20044;-71
2023/11/11 07:48:11;;;;;;;17.50;14.43;;;;;;;10.37;79.21;93384.75;4208009;28;20127;-71
2023/11/11 07:50:15;;;;;;;15.27;13.63;;;;;;;10.47;79.09;93395.66;4187208;28;20525;-70
2023/11/11 07:52:17;;;;;;;;;;;;;;;10.56;78.66;93399.78;4212933;28;20406;-72
2023/11/11 07:54:19;;;;;;;17.10;13.80;;;;;;;10.36;78.37;93383.91;4193636;28;20270;-71
2023/11/11 07:56:23;;;;;;;16.55;12.70;;;;;;;10.55;78.33;93381.63;4212339;28;20059;-70
2023/11/11 07:58:25;;;;;;;15.95;13.30;;;;;;;10.72;78.24;93376.91;4212028;28;20461;-71
2023/11/11 08:00:30;;;;;;;16.45;11.45;;;;;;;10.76;76.08;93378.16;4194686;28;20049;-73
2023/11/11 08:02:32;;;;;;;15.15;12.95;;;;;;;10.88;76.26;93379.22;4210442;28;20056;-73
2023/11/11 08:04:34;;;;;;;13.77;11.75;;;;;;;11.01;76.38;93381.09;4211887;28;20427;-73
2023/11/11 08:06:37;;;;;;;16.02;12.18;;;;;;;11.13;76.10;93374.31;4194305;28;20060;-73
2023/11/11 08:08:40;;;;;;;12.45;11.02;;;;;;;10.95;74.80;93366.97;4210306;28;20117;-73
2023/11/11 08:10:42;;;;;;;15.85;11.35;;;;;;;10.92;75.05;93377.81;4203723;28;20047;-72
2023/11/11 08:12:44;;;;;;;16.85;11.75;;;;;;;10.91;75.63;93384.06;4176162;28;20064;-72
2023/11/11 08:14:46;;;;;;;13.32;10.52;;;;;;;11.00;75.61;93375.06;4208028;28;20052;-72
2023/11/11 08:16:48;;;;;;;15.85;11.32;;;;;;;11.10;75.34;93385.19;4187863;28;20041;-70
2023/11/11 08:18:50;;;;;;;15.75;13.27;;;;;;;11.07;75.82;93365.41;4179735;28;20511;-71
2023/11/11 08:20:52;;;;;;;18.85;14.05;;;;;;;10.95;75.60;93360.91;4201301;28;20060;-74
2023/11/11 08:22:54;;;;;;;21.15;15.68;;;;;;;10.96;76.05;93373.81;4189283;28;20099;-71
2023/11/11 08:24:57;;;;;;;17.77;13.65;;;;;;;11.13;76.39;93391.84;4181675;28;20059;-71
2023/11/11 08:27:00;;;;;;;17.63;12.70;;;;;;;10.90;75.31;93384.25;4210413;28;20470;-71
2023/11/11 08:29:04;;;;;;;18.05;11.75;;;;;;;10.74;75.13;93367.06;4211510;28;20044;-72
2023/11/11 08:31:06;;;;;;;15.73;11.50;;;;;;;10.79;75.47;93351.56;4212228;28;20048;-72
2023/11/11 08:33:10;;;;;;;18.25;13.27;;;;;;;10.74;76.30;93369.69;4206684;28;20036;-70
2023/11/11 08:35:15;;;;;;;17.27;11.85;;;;;;;10.82;75.42;93359.06;4206406;28;20477;-72
2023/11/11 08:37:17;;;;;;;16.08;12.27;;;;;;;11.18;75.72;93344.88;4187604;28;20410;-72
2023/11/11 08:39:20;;;;;;;16.38;11.40;;;;;;;11.60;74.75;93351.69;4211656;28;20052;-72
2023/11/11 08:41:25;;;;;;;17.83;13.60;;;;;;;11.85;72.83;93341.44;4211068;28;20059;-73
2023/11/11 08:43:28;;;;;;;16.25;12.38;;;;;;;11.76;71.93;93340.00;4211922;28;20044;-71
2023/11/11 08:45:30;;;;;;;18.60;10.40;;;;;;;11.51;71.65;93334.53;4210780;28;20131;-71
2023/11/11 08:47:33;;;;;;;16.90;11.83;;;;;;;11.72;71.94;93353.72;4209989;28;20056;-72
2023/11/11 08:49:38;;;;;;;12.52;10.50;;;;;;;11.79;71.33;93350.13;4208770;28;20486;-71
2023/11/11 08:51:40;;;;;;;12.85;9.77;;;;;;;12.03;70.57;93334.84;4210616;28;20123;-72
2023/11/11 08:53:45;;;;;;;13.93;9.55;;;;;;;12.43;70.57;93354.03;4207242;28;20132;-70
2023/11/11 08:55:46;;;;;;;15.75;9.35;;;;;;;12.68;68.59;93356.00;4210615;28;20054;-72
2023/11/11 08:57:49;;;;;;;11.93;8.45;;;;;;;12.42;68.58;93352.38;4211831;28;20075;-72
2023/11/11 08:59:51;;;;;;;15.57;8.15;;;;;;;12.39;68.95;93352.81;4210825;28;20480;-71
2023/11/11 09:01:54;;;;;;;12.82;8.68;;;;;;;12.81;67.44;93355.97;4192959;28;20072;-72
2023/11/11 09:03:56;;;;;;;13.05;8.73;;;;;;;13.03;67.06;93324.97;4211018;28;20224;-72
2023/11/11 09:05:58;;;;;;;17.35;11.73;;;;;;;12.97;66.82;93338.13;4199262;28;20044;-71
2023/11/11 09:08:00;;;;;;;16.27;11.15;;;;;;;13.20;65.77;93338.47;4211158;28;20044;-71
2023/11/11 09:10:03;;;;;;;9.73;7.22;;;;;;;13.42;64.49;93328.50;4193655;28;20045;-72
2023/11/11 09:12:06;;;;;;;8.70;7.00;;;;;;;13.79;65.16;93322.63;4198386;28;20435;-70
2023/11/11 09:14:08;;;;;;;9.55;6.35;;;;;;;13.99;62.45;93307.50;4201455;28;20135;-71
2023/11/11 09:16:11;;;;;;;8.60;6.30;;;;;;;13.70;62.14;93324.69;4211515;28;20127;-71
2023/11/11 09:18:14;;;;;;;10.52;7.57;;;;;;;13.82;62.54;93328.28;4205016;28;20040;-72
2023/11/11 09:20:16;;;;;;;12.50;7.97;;;;;;;13.70;63.43;93301.00;4216752;28;20054;-71
2023/11/11 09:22:19;;;;;;;16.00;9.80;;;;;;;13.91;63.09;93287.50;4191583;28;20055;-72
2023/11/11 09:24:22;;;;;;;12.10;9.35;;;;;;;14.13;63.26;93285.31;4211492;28;20047;-71
2023/11/11 09:26:24;;;;;;;10.30;8.25;;;;;;;14.13;61.09;93287.13;4205444;28;20056;-73
2023/11/11 09:28:26;;;;;;;12.43;8.00;;;;;;;13.84;63.18;93284.13;4200933;28;20134;-71
2023/11/11 09:30:28;;;;;;;14.85;8.07;;;;;;;14.02;62.43;93295.72;4206340;28;20044;-71